createdAt,value
2023-05-22T00:00:54.402Z,86.25
2023-05-22T00:04:10.367Z,86.03
2023-05-22T00:07:25.374Z,84.58
2023-05-22T00:10:27.232Z,84.80
2023-05-22T00:13:42.384Z,85.38
2023-05-22T00:16:50.990Z,84.46
2023-05-22T00:20:02.413Z,84.76
2023-05-22T00:23:17.410Z,85.39
2023-05-22T00:26:20.610Z,83.80
2023-05-22T00:29:35.370Z,85.62
2023-05-22T00:32:50.431Z,84.87
2023-05-22T00:35:59.428Z,83.88
2023-05-22T00:39:08.035Z,83.16
2023-05-22T00:42:16.371Z,82.97
2023-05-22T00:45:38.388Z,83.72
2023-05-22T00:48:40.276Z,82.73
2023-05-22T00:51:56.417Z,83.25
2023-05-22T00:55:05.718Z,83.81
2023-05-22T00:58:33.399Z,85.65
2023-05-22T01:01:35.761Z,85.52
2023-05-22T01:04:54.432Z,84.95
2023-05-22T01:07:56.319Z,85.04
2023-05-22T01:11:20.405Z,85.58
2023-05-22T01:14:47.423Z,85.67
2023-05-22T01:18:14.432Z,85.26
2023-05-22T01:21:21.493Z,85.98
2023-05-22T01:25:10.412Z,85.82
2023-05-22T01:28:42.105Z,86.57
2023-05-22T01:32:01.416Z,87.09
2023-05-22T01:35:14.381Z,87.20
2023-05-22T01:38:23.112Z,86.00
2023-05-22T01:41:41.425Z,86.17
2023-05-22T01:45:04.400Z,86.11
2023-05-22T01:48:13.383Z,86.52
2023-05-22T01:51:53.592Z,86.77
2023-05-22T01:55:16.392Z,86.96
2023-05-22T01:58:36.397Z,86.70
2023-05-22T02:01:45.796Z,86.72
2023-05-22T02:05:07.424Z,86.00
2023-05-22T02:08:17.262Z,88.08
2023-05-22T02:11:29.381Z,88.94
2023-05-22T02:14:44.379Z,91.46
2023-05-22T02:17:53.055Z,90.26
2023-05-22T02:21:08.393Z,87.82
2023-05-22T02:24:17.406Z,87.20
2023-05-22T02:27:25.975Z,87.86
2023-05-22T02:30:40.624Z,88.33
2023-05-22T02:33:55.400Z,88.86
2023-05-22T02:37:10.431Z,88.67
2023-05-22T02:40:19.400Z,89.62
2023-05-22T02:43:34.655Z,90.06
2023-05-22T02:46:43.452Z,89.31
2023-05-22T02:49:52.018Z,89.39
2023-05-22T02:53:00.380Z,89.39
2023-05-22T02:56:09.939Z,89.24
2023-05-22T02:59:18.399Z,90.01
2023-05-22T03:02:33.562Z,89.99
2023-05-22T03:05:48.411Z,90.42
2023-05-22T03:08:56.958Z,90.79
2023-05-22T03:12:12.389Z,90.84
2023-05-22T03:15:14.378Z,91.36
2023-05-22T03:18:36.452Z,91.30
2023-05-22T03:21:38.928Z,91.60
2023-05-22T03:24:53.433Z,92.19
2023-05-22T03:28:08.441Z,92.51
2023-05-22T03:31:16.991Z,92.89
2023-05-22T03:34:25.400Z,92.99
2023-05-22T03:37:33.960Z,92.89
2023-05-22T03:40:48.430Z,93.65
2023-05-22T03:44:10.409Z,93.45
2023-05-22T03:47:18.993Z,93.81
2023-05-22T03:50:33.445Z,93.14
2023-05-22T03:53:35.292Z,93.38
2023-05-22T03:56:50.432Z,92.92
2023-05-22T03:59:58.970Z,92.92
2023-05-22T04:03:07.544Z,92.37
2023-05-22T04:06:22.433Z,92.43
2023-05-22T04:09:38.456Z,91.98
2023-05-22T04:12:53.408Z,91.88
2023-05-22T04:16:02.122Z,91.43
2023-05-22T04:19:17.437Z,90.23
2023-05-22T04:22:27.316Z,90.06
2023-05-22T04:25:42.427Z,89.87
2023-05-22T04:28:51.425Z,88.90
2023-05-22T04:31:59.968Z,88.06
2023-05-22T04:35:14.429Z,88.31
2023-05-22T04:38:22.943Z,87.62
2023-05-22T04:41:37.454Z,87.44
2023-05-22T04:44:59.422Z,86.76
2023-05-22T04:48:07.473Z,86.63
2023-05-22T04:51:16.088Z,86.22
2023-05-22T04:54:24.420Z,86.00
2023-05-22T04:57:39.489Z,85.72
2023-05-22T05:00:54.476Z,84.89
2023-05-22T05:04:03.625Z,84.04
2023-05-22T05:07:18.486Z,85.39
2023-05-22T05:10:33.429Z,83.74
2023-05-22T05:13:48.432Z,82.88
2023-05-22T05:16:56.443Z,83.84
2023-05-22T05:20:05.678Z,85.20
2023-05-22T05:23:14.429Z,81.66
2023-05-22T05:26:22.989Z,81.82
2023-05-22T05:29:31.429Z,80.34
2023-05-22T05:32:40.148Z,78.97
2023-05-22T05:35:48.415Z,80.11
2023-05-22T05:39:03.428Z,78.43
2023-05-22T05:42:18.421Z,78.93
2023-05-22T05:45:26.667Z,79.00
2023-05-22T05:48:41.473Z,79.44
2023-05-22T05:51:43.319Z,79.04
2023-05-22T05:54:58.445Z,77.92
2023-05-22T05:58:14.587Z,74.67
2023-05-22T06:01:23.028Z,73.39
2023-05-22T06:04:31.466Z,74.20
2023-05-22T06:07:46.419Z,72.72
2023-05-22T06:11:01.471Z,73.89
2023-05-22T06:14:05.301Z,73.89
2023-05-22T06:17:20.478Z,73.04
2023-05-22T06:20:28.934Z,73.13
2023-05-22T06:23:37.471Z,72.71
2023-05-22T06:26:52.455Z,72.98
2023-05-22T06:30:07.530Z,73.94
2023-05-22T06:33:09.509Z,73.93
2023-05-22T06:36:31.433Z,73.26
2023-05-22T06:39:40.497Z,72.36
2023-05-22T06:42:50.430Z,62.88
2023-05-22T06:46:05.799Z,63.42
2023-05-22T06:49:20.510Z,60.48
2023-05-22T06:52:29.033Z,60.78
2023-05-22T06:55:43.439Z,56.00
2023-05-22T06:58:58.466Z,58.18
2023-05-22T07:02:07.879Z,58.04
2023-05-22T07:05:16.455Z,54.14
2023-05-22T07:08:27.791Z,56.00
2023-05-22T07:11:37.477Z,55.02
2023-05-22T07:14:52.433Z,56.40
2023-05-22T07:18:07.528Z,57.37
2023-05-22T07:21:22.445Z,57.82
2023-05-22T07:24:24.415Z,57.40
2023-05-22T07:27:39.453Z,57.33
2023-05-22T07:30:47.991Z,57.12
2023-05-22T07:34:02.471Z,53.70
2023-05-22T07:37:08.717Z,55.26
2023-05-22T07:40:24.435Z,57.08
2023-05-22T07:43:40.725Z,57.47
2023-05-22T07:46:55.491Z,56.82
2023-05-22T07:50:04.569Z,57.42
2023-05-22T07:53:13.474Z,55.85
2023-05-22T07:56:28.457Z,57.54
2023-05-22T07:59:43.459Z,59.91
2023-05-22T08:02:58.595Z,61.12
2023-05-22T08:06:07.372Z,60.72
2023-05-22T08:09:15.488Z,56.38
2023-05-22T08:12:30.462Z,54.89
2023-05-22T08:15:45.540Z,55.60
2023-05-22T08:18:54.510Z,56.73
2023-05-22T08:22:09.473Z,56.06
2023-05-22T08:25:24.545Z,56.81
2023-05-22T08:28:26.460Z,56.30
2023-05-22T08:31:41.483Z,57.92
2023-05-22T08:34:43.325Z,55.76
2023-05-22T08:37:58.450Z,54.43
2023-05-22T08:41:14.487Z,53.37
2023-05-22T08:47:41.551Z,49.82
2023-05-22T08:50:51.475Z,49.35
2023-05-22T08:54:08.543Z,50.53
2023-05-22T08:57:10.855Z,51.56
2023-05-22T09:00:27.505Z,51.79
2023-05-22T09:03:30.641Z,52.63
2023-05-22T09:06:46.260Z,52.86
2023-05-22T09:09:50.153Z,53.68
2023-05-22T09:13:15.483Z,54.48
2023-05-22T09:16:24.494Z,53.09
2023-05-22T09:19:33.181Z,53.51
2023-05-22T09:22:48.467Z,51.79
2023-05-22T09:26:05.456Z,49.24
2023-05-22T09:29:20.507Z,46.12
2023-05-22T09:32:23.100Z,51.22
2023-05-22T09:35:39.488Z,50.34
2023-05-22T09:38:41.527Z,48.73
2023-05-22T09:41:57.535Z,48.11
2023-05-22T09:45:07.419Z,47.40
2023-05-22T09:48:23.491Z,49.00
2023-05-22T09:51:42.499Z,47.22
2023-05-22T09:54:50.903Z,46.83
2023-05-22T09:58:10.479Z,47.27
2023-05-22T10:01:19.757Z,46.35
2023-05-22T10:04:38.530Z,48.90
2023-05-22T10:07:59.344Z,50.50
2023-05-22T10:11:07.500Z,50.51
2023-05-22T10:14:23.496Z,48.73
2023-05-22T10:17:42.532Z,51.49
2023-05-22T10:20:51.883Z,48.17
2023-05-22T10:24:08.508Z,49.93
2023-05-22T10:27:16.520Z,47.88
2023-05-22T10:30:43.751Z,50.94
2023-05-22T10:34:05.681Z,50.47
2023-05-22T10:37:53.913Z,50.53
2023-05-22T10:41:04.712Z,47.32
2023-05-22T10:44:28.562Z,45.79
2023-05-22T10:47:44.742Z,45.39
2023-05-22T10:51:01.543Z,45.27
2023-05-22T10:54:10.211Z,46.54
2023-05-22T10:57:25.569Z,46.32
2023-05-22T11:00:44.650Z,44.60
2023-05-22T11:04:00.506Z,43.20
2023-05-22T11:07:09.199Z,43.92
2023-05-22T11:10:17.580Z,44.33
2023-05-22T11:13:29.005Z,43.97
2023-05-22T11:16:41.562Z,46.64
2023-05-22T11:20:06.205Z,44.92
2023-05-22T11:23:24.543Z,45.79
2023-05-22T11:26:28.112Z,46.11
2023-05-22T11:29:43.506Z,47.55
2023-05-22T11:32:46.055Z,44.91
2023-05-22T11:36:01.662Z,46.26
2023-05-22T11:39:21.591Z,43.45
2023-05-22T11:42:30.643Z,45.64
2023-05-22T11:45:52.519Z,43.40
2023-05-22T11:49:07.529Z,45.05
2023-05-22T11:52:16.870Z,44.50
2023-05-22T11:55:25.523Z,46.88
2023-05-22T11:58:40.530Z,43.64
2023-05-22T12:01:52.474Z,43.92
2023-05-22T12:05:01.545Z,40.90
2023-05-22T12:08:16.537Z,42.47
2023-05-22T12:11:26.581Z,43.41
2023-05-22T12:14:36.538Z,40.92
2023-05-22T12:17:51.580Z,40.95
2023-05-22T12:21:01.539Z,41.09
2023-05-22T12:24:16.560Z,45.05
2023-05-22T12:27:18.502Z,42.76
2023-05-22T12:30:33.550Z,42.59
2023-05-22T12:33:48.552Z,41.08
2023-05-22T12:37:03.590Z,40.30
2023-05-22T12:40:18.577Z,39.95
2023-05-22T12:43:40.538Z,42.33
2023-05-22T12:46:55.665Z,42.31
2023-05-22T12:49:57.547Z,39.95
2023-05-22T12:53:12.540Z,40.89
2023-05-22T12:56:21.122Z,40.19
2023-05-22T12:59:35.536Z,41.59
2023-05-22T13:02:50.594Z,40.94
2023-05-22T13:06:05.551Z,40.70
2023-05-22T13:09:14.235Z,40.08
2023-05-22T13:12:23.798Z,40.62
2023-05-22T13:15:33.239Z,41.04
2023-05-22T13:18:48.586Z,41.59
2023-05-22T13:21:58.415Z,43.92
2023-05-22T13:25:15.573Z,41.48
2023-05-22T13:28:30.593Z,39.73
2023-05-22T13:31:32.469Z,40.26
2023-05-22T13:34:48.687Z,40.59
2023-05-22T13:37:57.609Z,42.35
2023-05-22T13:41:06.283Z,42.88
2023-05-22T13:44:14.625Z,41.03
2023-05-22T13:47:29.880Z,41.18
2023-05-22T13:50:38.632Z,40.24
2023-05-22T13:53:53.596Z,40.80
2023-05-22T13:57:08.646Z,41.23
2023-05-22T14:00:17.575Z,43.81
2023-05-22T14:03:26.575Z,42.29
2023-05-22T14:06:35.133Z,42.45
2023-05-22T14:09:49.563Z,45.56
2023-05-22T14:12:57.633Z,41.19
2023-05-22T14:16:12.596Z,42.02
2023-05-22T14:19:14.552Z,41.12
2023-05-22T14:22:30.599Z,41.35
2023-05-22T14:25:41.888Z,43.92
2023-05-22T14:28:50.599Z,44.32
2023-05-22T14:32:04.243Z,44.23
2023-05-22T14:35:19.602Z,44.67
2023-05-22T14:38:31.222Z,44.69
2023-05-22T14:41:39.585Z,46.17
2023-05-22T14:45:01.641Z,46.07
2023-05-22T14:48:03.733Z,43.81
2023-05-22T14:51:18.596Z,45.65
2023-05-22T14:54:20.566Z,45.36
2023-05-22T14:57:35.597Z,47.71
2023-05-22T15:00:50.604Z,48.94
2023-05-22T15:03:52.603Z,48.57
2023-05-22T15:07:07.677Z,51.52
2023-05-22T15:10:16.196Z,48.24
2023-05-22T15:13:30.635Z,48.94
2023-05-22T15:16:39.219Z,49.83
2023-05-22T15:19:53.607Z,48.17
2023-05-22T15:22:55.466Z,46.55
2023-05-22T15:26:10.595Z,53.03
2023-05-22T15:29:12.582Z,48.49
2023-05-22T15:32:27.704Z,47.10
2023-05-22T15:35:36.153Z,50.28
2023-05-22T15:38:50.624Z,45.14
2023-05-22T15:42:06.276Z,47.70
2023-05-22T15:45:21.610Z,48.16
2023-05-22T15:48:30.237Z,45.69
2023-05-22T15:51:44.627Z,47.42
2023-05-22T15:54:54.944Z,47.72
2023-05-22T15:58:05.155Z,46.85
2023-05-22T16:01:19.639Z,48.05
2023-05-22T16:04:28.261Z,47.93
2023-05-22T16:07:42.614Z,48.44
2023-05-22T16:10:51.696Z,47.36
2023-05-22T16:14:06.657Z,47.73
2023-05-22T16:17:14.662Z,48.14
2023-05-22T16:20:23.195Z,48.50
2023-05-22T16:23:37.638Z,49.39
2023-05-22T16:26:46.196Z,49.52
2023-05-22T16:29:54.643Z,49.47
2023-05-22T16:33:03.208Z,51.21
2023-05-22T16:36:11.657Z,51.11
2023-05-22T16:39:20.209Z,49.94
2023-05-22T16:42:28.649Z,49.58
2023-05-22T16:45:43.900Z,51.28
2023-05-22T16:48:58.658Z,50.84
2023-05-22T16:52:13.685Z,50.16
2023-05-22T16:55:22.269Z,51.23
2023-05-22T16:58:36.658Z,52.58
2023-05-22T17:01:45.234Z,55.95
2023-05-22T17:04:53.666Z,57.75
2023-05-22T17:08:02.196Z,57.21
2023-05-22T17:11:16.641Z,57.83
2023-05-22T17:14:31.624Z,56.75
2023-05-22T17:17:33.660Z,56.45
2023-05-22T17:20:48.629Z,55.95
2023-05-22T17:23:56.686Z,56.91
2023-05-22T17:27:05.366Z,57.19
2023-05-22T17:30:20.645Z,57.62
2023-05-22T17:33:23.727Z,56.18
2023-05-22T17:36:38.677Z,57.98
2023-05-22T17:39:53.658Z,58.25
2023-05-22T17:43:08.656Z,60.67
2023-05-22T17:46:23.970Z,69.05
2023-05-22T17:49:32.653Z,88.21
2023-05-22T17:52:41.237Z,98.77
2023-05-22T17:55:56.634Z,100.00
2023-05-22T17:59:05.653Z,100.00
2023-05-22T18:02:14.213Z,100.00
2023-05-22T18:05:28.637Z,100.00
2023-05-22T18:08:43.670Z,100.00
2023-05-22T18:11:45.639Z,100.00
2023-05-22T18:15:00.746Z,100.00
2023-05-22T18:18:12.091Z,100.00
2023-05-22T18:21:21.789Z,100.00
2023-05-22T18:24:36.722Z,100.00
2023-05-22T18:27:51.683Z,100.00
2023-05-22T18:31:07.706Z,100.00
2023-05-22T18:34:22.679Z,100.00
2023-05-22T18:37:37.679Z,100.00
2023-05-22T18:40:39.793Z,100.00
2023-05-22T18:43:54.649Z,100.00
2023-05-22T18:47:03.064Z,100.00
2023-05-22T18:50:18.671Z,100.00
2023-05-22T18:53:33.658Z,100.00
2023-05-22T18:56:42.725Z,100.00
2023-05-22T18:59:58.675Z,100.00
2023-05-22T19:03:14.650Z,100.00
2023-05-22T19:06:17.469Z,100.00
2023-05-22T19:09:33.661Z,100.00
2023-05-22T19:12:36.520Z,100.00
2023-05-22T19:15:52.677Z,100.00
2023-05-22T19:19:09.723Z,100.00
2023-05-22T19:22:19.870Z,100.00
2023-05-22T19:25:35.934Z,100.00
2023-05-22T19:28:51.699Z,100.00
2023-05-22T19:32:07.715Z,100.00
2023-05-22T19:35:31.690Z,100.00
2023-05-22T19:39:00.682Z,100.00
2023-05-22T19:42:18.690Z,100.00
2023-05-22T19:45:45.705Z,100.00
2023-05-22T19:49:17.668Z,100.00
2023-05-22T19:52:44.700Z,100.00
2023-05-22T19:56:01.059Z,100.00
2023-05-22T19:59:25.714Z,100.00
2023-05-22T20:02:42.716Z,100.00
2023-05-22T20:06:00.679Z,100.00
2023-05-22T20:09:18.671Z,100.00
2023-05-22T20:12:34.689Z,100.00
2023-05-22T20:16:09.700Z,100.00
2023-05-22T20:19:20.175Z,100.00
2023-05-22T20:22:37.665Z,100.00
2023-05-22T20:25:39.694Z,100.00
2023-05-22T20:28:54.677Z,100.00
2023-05-22T20:32:09.724Z,100.00
2023-05-22T20:35:12.634Z,100.00
2023-05-22T20:38:27.705Z,100.00
2023-05-22T20:41:42.691Z,100.00
2023-05-22T20:44:44.918Z,100.00
2023-05-22T20:47:59.754Z,100.00
2023-05-22T20:51:08.278Z,100.00
2023-05-22T20:54:23.687Z,100.00
2023-05-22T20:57:38.697Z,100.00
2023-05-22T21:00:47.238Z,100.00
2023-05-22T21:04:01.785Z,100.00
2023-05-22T21:07:16.694Z,100.00
2023-05-22T21:10:25.210Z,100.00
2023-05-22T21:13:39.713Z,100.00
2023-05-22T21:16:41.613Z,100.00
2023-05-22T21:19:56.675Z,100.00
2023-05-22T21:23:05.277Z,100.00
2023-05-22T21:26:13.721Z,100.00
2023-05-22T21:29:22.233Z,100.00
2023-05-22T21:32:30.765Z,100.00
2023-05-22T21:35:45.701Z,100.00
2023-05-22T21:38:47.686Z,100.00
2023-05-22T21:42:02.732Z,100.00
2023-05-22T21:45:18.084Z,100.00
2023-05-22T21:48:26.748Z,100.00
2023-05-22T21:51:35.318Z,100.00
2023-05-22T21:54:43.708Z,100.00
2023-05-22T22:01:24.758Z,100.00
2023-05-22T22:04:39.696Z,100.00
2023-05-22T22:07:48.285Z,100.00
2023-05-22T22:10:56.707Z,100.00
2023-05-22T22:14:05.320Z,100.00
2023-05-22T22:17:19.698Z,100.00
2023-05-22T22:20:30.340Z,100.00
2023-05-22T22:23:54.721Z,100.00
2023-05-22T22:27:09.715Z,100.00
2023-05-22T22:30:11.777Z,100.00
2023-05-22T22:33:27.701Z,100.00
2023-05-22T22:36:29.606Z,100.00
2023-05-22T22:39:44.702Z,100.00
2023-05-22T22:42:52.768Z,100.00
2023-05-22T22:46:07.992Z,100.00
2023-05-22T22:49:22.729Z,100.00
2023-05-22T22:52:24.824Z,100.00
2023-05-22T22:55:40.103Z,100.00
2023-05-22T22:58:48.701Z,100.00
2023-05-22T23:02:03.745Z,100.00
2023-05-22T23:05:07.090Z,100.00
2023-05-22T23:08:21.710Z,100.00
2023-05-22T23:11:36.747Z,100.00
2023-05-22T23:14:45.266Z,100.00
2023-05-22T23:17:59.750Z,100.00
2023-05-22T23:21:08.257Z,100.00
2023-05-22T23:24:22.698Z,100.00
2023-05-22T23:27:31.227Z,100.00
2023-05-22T23:30:45.703Z,100.00
2023-05-22T23:34:00.742Z,100.00
2023-05-22T23:37:02.997Z,100.00
2023-05-22T23:40:17.731Z,100.00
2023-05-22T23:43:20.779Z,100.00
2023-05-22T23:46:42.801Z,100.00
2023-05-22T23:49:51.703Z,100.00
2023-05-22T23:53:06.714Z,100.00
2023-05-22T23:56:21.725Z,100.00
2023-05-22T23:59:36.731Z,100.00
